Weather at Bouthillier Airport

Public forecast

Using degrees Celsius for public forecast. Weather courtesy of forecast.io.

Closest aviation weather report (METAR) to Bouthillier Airport

Closest report is MontrĂ©al / Saint-Hubert Airport, 5.4 nm (10.0 km) WNW. Retrieved 2020/09/20 10:00 UTC (49 minutes ago):

CYHU 201000Z AUTO 01007KT 9SM CLR 04/02 A3052 RMK SLP337

Closest aviation forecast (TAF) to Bouthillier Airport

Closest forecast is MontrĂ©al / Saint-Hubert Airport, 5.4 nm (10.0 km) WNW. Retrieved 2020/09/20 06:42 UTC (4 hours ago):

TAF CYHU 200538Z 2006/2106 VRB03KT P6SM FEW060 PROB30 2008/2013 3/4SM BR BKN004 FM201400 VRB03KT P6SM SKC RMK FCST BASED ON AUTO OBS NXT FCST BY 201200Z